Time;durP1;ratioP1;P1;durP2;ratioP2;P2;SDS_P1;SDS_P2;PMS_P1;PMS_P2;Temp;Humidity;BMP_temperature;BMP_pressure;BME280_temperature;BME280_humidity;BME280_pressure;Samples;Min_cycle;Max_cycle;Signal;HPM_P1;HPM_P2
2023/09/13 05:04:22;;;;;;;2.85;2.65;;;;;;;21.35;64.03;99484.81;5279153;23;20119;-74
2023/09/13 05:06:50;;;;;;;4.30;2.83;;;;;;;21.33;64.17;99484.13;4918320;29;20056;-73
2023/09/13 05:09:16;;;;;;;4.07;2.63;;;;;;;21.30;64.30;99493.31;4917672;29;20098;-76
2023/09/13 05:11:43;;;;;;;2.97;2.67;;;;;;;21.29;64.47;99485.44;4915784;29;20493;-75
2023/09/13 05:14:14;;;;;;;3.03;2.33;;;;;;;21.28;64.57;99487.28;4916403;29;20095;-75
2023/09/13 05:16:40;;;;;;;2.90;2.60;;;;;;;21.29;64.89;99480.09;4916298;29;20122;-76
2023/09/13 05:19:07;;;;;;;3.17;2.50;;;;;;;21.30;64.93;99487.13;4916183;29;20067;-75
2023/09/13 05:21:34;;;;;;;2.20;2.00;;;;;;;21.31;65.48;99486.94;4899072;29;20048;-75
2023/09/13 05:24:00;;;;;;;2.60;2.03;;;;;;;21.34;65.34;99485.78;4915750;29;20052;-74
2023/09/13 05:26:27;;;;;;;2.72;2.17;;;;;;;21.35;65.44;99485.63;4917089;29;20140;-75
2023/09/13 05:28:53;;;;;;;1.42;1.33;;;;;;;21.38;65.49;99488.97;4917157;29;20083;-75
2023/09/13 05:31:20;;;;;;;1.33;1.10;;;;;;;21.41;65.37;99488.66;4916886;29;20140;-74
2023/09/13 05:33:47;;;;;;;1.92;1.45;;;;;;;21.42;65.28;99483.13;4916787;29;20127;-74
2023/09/13 05:36:14;;;;;;;1.58;1.30;;;;;;;21.45;65.24;99484.63;4915799;29;20135;-75
2023/09/13 05:38:41;;;;;;;1.55;1.40;;;;;;;21.46;65.14;99484.47;4916655;29;20060;-74
2023/09/13 05:41:09;;;;;;;1.38;1.25;;;;;;;21.47;65.29;99488.84;4899952;29;20049;-75
2023/09/13 05:43:41;;;;;;;1.33;1.20;;;;;;;21.47;66.15;99496.03;4916592;29;20112;-74
2023/09/13 05:46:09;;;;;;;2.75;1.30;;;;;;;21.52;65.25;99496.34;4916569;29;20060;-75
2023/09/13 05:48:36;;;;;;;2.17;1.75;;;;;;;21.54;65.23;99496.19;4916600;29;20063;-75
2023/09/13 05:51:06;;;;;;;4.20;1.52;;;;;;;21.56;65.40;99499.53;4916382;29;20095;-75
2023/09/13 05:53:33;;;;;;;2.00;1.77;;;;;;;21.58;65.24;99506.44;4916228;29;20056;-75
2023/09/13 05:55:59;;;;;;;2.20;2.00;;;;;;;21.60;65.87;99503.56;4916377;29;20104;-76
2023/09/13 05:58:26;;;;;;;3.08;2.45;;;;;;;21.63;65.49;99515.81;4916534;29;20052;-75
2023/09/13 06:00:55;;;;;;;3.83;2.60;;;;;;;21.64;65.82;99510.25;4899463;29;20068;-75
2023/09/13 06:03:22;;;;;;;5.80;3.20;;;;;;;21.68;66.13;99519.63;4914798;29;20513;-75
2023/09/13 06:05:50;;;;;;;8.23;4.40;;;;;;;21.71;66.14;99513.94;4914855;29;20060;-75
2023/09/13 06:08:18;;;;;;;6.57;5.47;;;;;;;21.76;66.04;99526.91;4914737;29;20111;-74
2023/09/13 06:10:45;;;;;;;9.25;8.20;;;;;;;21.82;66.30;99530.72;4914876;29;20051;-74
2023/09/13 06:13:12;;;;;;;12.07;10.25;;;;;;;21.82;66.18;99526.22;4915792;29;20067;-74
2023/09/13 06:15:39;;;;;;;16.35;11.18;;;;;;;21.85;66.40;99527.72;4915966;29;20544;-74
2023/09/13 06:18:05;;;;;;;13.75;10.68;;;;;;;21.89;66.30;99533.56;4915844;29;20786;-76
2023/09/13 06:20:33;;;;;;;16.00;11.32;;;;;;;21.91;66.11;99537.78;4899176;29;20056;-75
2023/09/13 06:22:59;;;;;;;15.45;11.40;;;;;;;21.94;66.25;99540.09;4915499;29;20134;-75
2023/09/13 06:25:26;;;;;;;17.25;12.15;;;;;;;21.95;66.13;99536.44;4915687;29;20898;-75
2023/09/13 06:27:52;;;;;;;20.73;14.88;;;;;;;21.96;66.25;99545.31;4915733;29;20496;-75
2023/09/13 06:30:20;;;;;;;19.42;13.73;;;;;;;21.99;66.19;99550.34;4915629;29;20087;-74
2023/09/13 06:32:47;;;;;;;19.25;14.30;;;;;;;22.01;66.23;99551.00;4915258;29;20088;-77
2023/09/13 06:35:33;;;;;;;14.95;11.60;;;;;;;22.02;66.00;99551.84;4915966;29;20052;-75
2023/09/13 06:38:02;;;;;;;15.88;13.05;;;;;;;22.02;66.26;99562.56;4915580;29;20082;-76
2023/09/13 06:40:29;;;;;;;15.85;12.80;;;;;;;22.00;66.11;99550.19;4915516;29;20048;-75
2023/09/13 06:43:01;;;;;;;19.33;13.18;;;;;;;22.00;66.06;99549.31;4913499;29;20059;-75
2023/09/13 06:45:29;;;;;;;17.90;13.23;;;;;;;21.99;66.37;99556.53;4913825;29;20056;-75
2023/09/13 06:47:56;;;;;;;19.27;13.10;;;;;;;22.00;66.58;99558.22;4913717;29;20457;-75
2023/09/13 06:50:24;;;;;;;31.98;12.60;;;;;;;22.02;66.51;99554.53;4913879;29;20052;-76
2023/09/13 06:53:11;;;;;;;22.60;12.73;;;;;;;22.02;66.33;99560.72;4913643;29;20056;-75
2023/09/13 06:55:57;;;;;;;17.60;12.27;;;;;;;22.03;66.37;99565.09;4914114;29;20052;-74
2023/09/13 06:58:27;;;;;;;14.02;12.35;;;;;;;22.03;66.66;99565.09;4915383;29;20718;-74
2023/09/13 07:00:55;;;;;;;15.13;13.05;;;;;;;22.04;66.52;99574.78;4915376;29;20405;-75
2023/09/13 07:03:42;;;;;;;17.58;13.02;;;;;;;22.03;66.70;99572.28;4914955;29;20050;-75
2023/09/13 07:06:16;;;;;;;14.82;12.50;;;;;;;22.03;66.62;99574.94;4915229;29;20055;-75
2023/09/13 07:08:42;;;;;;;14.65;12.32;;;;;;;22.02;66.55;99570.59;4915186;29;20496;-74
2023/09/13 07:11:09;;;;;;;13.70;11.45;;;;;;;22.00;66.83;99574.28;4915064;29;20054;-75
2023/09/13 07:13:36;;;;;;;17.85;12.45;;;;;;;22.00;67.08;99576.13;4915084;29;20091;-74
2023/09/13 07:16:03;;;;;;;14.35;12.85;;;;;;;22.00;67.17;99587.69;4915029;29;20064;-74
2023/09/13 07:18:29;;;;;;;13.90;12.45;;;;;;;22.03;67.45;99580.31;4915021;29;20060;-75
2023/09/13 07:20:56;;;;;;;22.83;12.73;;;;;;;22.04;67.47;99580.16;4915107;29;20221;-75
2023/09/13 07:23:23;;;;;;;13.13;10.95;;;;;;;22.07;67.34;99584.34;4914572;29;20517;-74
2023/09/13 07:25:49;;;;;;;14.38;12.23;;;;;;;22.11;67.47;99583.00;4915042;29;20123;-76
2023/09/13 07:28:16;;;;;;;16.42;13.65;;;;;;;22.16;67.67;99591.38;4914888;29;20493;-75
2023/09/13 07:30:43;;;;;;;19.05;14.18;;;;;;;22.18;67.18;99593.88;4914922;29;20048;-75
2023/09/13 07:33:10;;;;;;;16.10;13.73;;;;;;;22.20;66.98;99590.03;4914498;29;20052;-77
2023/09/13 07:35:37;;;;;;;16.25;13.30;;;;;;;22.22;67.10;99590.72;4914999;29;20055;-76
2023/09/13 07:38:03;;;;;;;19.50;13.93;;;;;;;22.24;67.23;99588.69;4914784;29;20485;-74
2023/09/13 07:40:30;;;;;;;16.30;12.77;;;;;;;22.27;67.44;99582.16;4914736;29;20055;-75
2023/09/13 07:42:58;;;;;;;16.10;13.55;;;;;;;22.32;67.53;99581.66;4914464;29;20070;-76
2023/09/13 07:45:26;;;;;;;14.48;11.73;;;;;;;22.36;67.12;99578.44;4913504;29;20051;-76
2023/09/13 07:47:53;;;;;;;13.85;11.23;;;;;;;22.41;67.45;99593.19;4914580;29;20517;-75
2023/09/13 07:50:30;;;;;;;11.27;10.07;;;;;;;22.42;67.83;99595.72;4914755;29;20056;-75
2023/09/13 07:52:57;;;;;;;12.23;10.43;;;;;;;22.51;67.95;99602.75;4914488;29;20052;-75
2023/09/13 07:55:30;;;;;;;10.35;9.27;;;;;;;22.57;67.44;99609.31;4914598;29;20498;-74
2023/09/13 07:57:57;;;;;;;10.38;9.20;;;;;;;22.65;67.62;99611.13;4914525;29;20489;-75
2023/09/13 08:00:24;;;;;;;10.88;8.70;;;;;;;22.73;67.53;99619.16;4917686;29;20714;-75
2023/09/13 08:02:50;;;;;;;8.88;7.97;;;;;;;22.80;67.06;99616.63;4918205;29;20099;-76
2023/09/13 08:05:17;;;;;;;9.60;8.23;;;;;;;22.84;66.85;99617.97;4918443;29;20058;-76
2023/09/13 08:07:45;;;;;;;12.00;8.88;;;;;;;22.87;66.24;99619.47;4918301;29;20394;-74
2023/09/13 08:10:12;;;;;;;10.45;8.82;;;;;;;22.88;66.30;99622.00;4901612;29;20076;-74
2023/09/13 08:12:39;;;;;;;10.27;8.40;;;;;;;22.87;65.91;99622.16;4917964;29;20124;-76
2023/09/13 08:15:06;;;;;;;9.52;8.50;;;;;;;22.86;65.81;99628.53;4901637;29;20056;-74
2023/09/13 08:17:33;;;;;;;12.43;8.93;;;;;;;22.83;65.64;99634.28;4918330;29;20064;-76
2023/09/13 08:20:10;;;;;;;8.77;7.88;;;;;;;22.79;66.40;99633.75;4918123;29;20571;-75
2023/09/13 08:22:37;;;;;;;8.30;7.03;;;;;;;22.77;66.20;99633.09;4917771;29;20408;-75
2023/09/13 08:25:07;;;;;;;9.05;8.15;;;;;;;22.77;66.79;99639.28;4918081;29;20102;-75
2023/09/13 08:27:38;;;;;;;8.93;8.10;;;;;;;22.77;66.77;99636.59;4918318;29;20052;-76
2023/09/13 08:30:06;;;;;;;8.88;7.00;;;;;;;22.77;66.58;99652.69;4918139;29;20051;-76
2023/09/13 08:32:32;;;;;;;7.10;5.70;;;;;;;22.74;64.70;99690.63;4917701;29;20449;-75
2023/09/13 08:34:59;;;;;;;5.93;3.83;;;;;;;22.68;63.27;99675.19;4917842;29;20075;-75
2023/09/13 08:37:25;;;;;;;4.00;2.30;;;;;;;22.54;61.44;99697.31;4917959;29;20059;-75
2023/09/13 08:39:56;;;;;;;7.43;2.90;;;;;;;22.36;60.77;99709.03;4917838;29;20054;-75
2023/09/13 08:42:24;;;;;;;3.65;1.90;;;;;;;22.16;60.35;99716.53;4917612;29;20044;-75
2023/09/13 08:44:52;;;;;;;3.00;2.00;;;;;;;21.94;60.73;99732.22;4917734;29;20580;-75
2023/09/13 08:47:22;;;;;;;3.45;1.50;;;;;;;21.74;60.60;99745.88;4917797;29;20519;-76
2023/09/13 08:49:51;;;;;;;4.22;1.60;;;;;;;21.57;60.57;99753.81;4917577;29;20575;-74
2023/09/13 08:52:19;;;;;;;5.70;2.15;;;;;;;21.41;60.86;99759.91;4900436;29;20052;-74
2023/09/13 08:54:48;;;;;;;4.57;1.27;;;;;;;21.29;60.75;99763.84;4917859;29;20052;-76
2023/09/13 08:57:25;;;;;;;3.20;1.45;;;;;;;21.17;60.48;99774.84;4917756;29;20067;-75
2023/09/13 08:59:52;;;;;;;5.95;1.95;;;;;;;21.05;60.29;99782.25;4917607;29;20473;-74
2023/09/13 09:02:21;;;;;;;8.27;2.28;;;;;;;20.94;60.15;99791.38;4917124;29;20087;-75
2023/09/13 09:04:49;;;;;;;5.57;1.58;;;;;;;20.85;60.76;99792.25;4917308;29;20054;-74
2023/09/13 09:07:19;;;;;;;4.07;1.83;;;;;;;20.75;60.92;99792.34;4917641;29;20083;-77
2023/09/13 09:09:47;;;;;;;4.55;1.77;;;;;;;20.72;61.42;99800.69;4917140;29;20060;-76
2023/09/13 09:12:17;;;;;;;4.47;2.00;;;;;;;20.68;61.57;99802.81;4916957;29;20096;-74
2023/09/13 09:14:46;;;;;;;5.35;1.95;;;;;;;20.69;61.87;99801.00;4917373;29;20094;-74
2023/09/13 09:17:14;;;;;;;4.82;1.88;;;;;;;20.70;62.08;99808.88;4917116;29;20111;-75
2023/09/13 09:19:41;;;;;;;4.40;2.03;;;;;;;20.73;61.89;99818.41;4900253;29;20056;-76
2023/09/13 09:22:10;;;;;;;3.45;1.80;;;;;;;20.77;61.61;99826.97;4916726;29;20564;-75
2023/09/13 09:24:39;;;;;;;8.15;2.10;;;;;;;20.78;61.15;99836.69;4917231;29;20103;-76
2023/09/13 09:27:06;;;;;;;7.07;2.17;;;;;;;20.80;60.97;99840.03;4917092;29;20060;-74
2023/09/13 09:29:35;;;;;;;5.50;2.10;;;;;;;20.81;61.02;99857.78;4917022;29;20111;-75
2023/09/13 09:32:05;;;;;;;4.68;1.85;;;;;;;20.83;60.76;99863.81;4916592;29;20056;-76
2023/09/13 09:34:32;;;;;;;3.28;1.70;;;;;;;20.86;60.47;99868.03;4916796;29;20052;-75
2023/09/13 09:37:09;;;;;;;7.65;2.00;;;;;;;20.86;59.57;99876.88;4916804;29;20489;-75
2023/09/13 09:39:40;;;;;;;5.55;2.00;;;;;;;20.87;59.80;99873.25;4917028;29;20059;-75
2023/09/13 09:42:13;;;;;;;4.75;1.60;;;;;;;20.88;60.07;99871.41;4916447;29;20064;-75
2023/09/13 09:44:39;;;;;;;9.00;2.47;;;;;;;20.89;59.88;99878.47;4916746;29;20052;-75
2023/09/13 09:47:10;;;;;;;6.40;1.83;;;;;;;20.87;59.17;99881.28;4916614;29;20084;-74
2023/09/13 09:49:37;;;;;;;6.90;2.40;;;;;;;20.90;59.56;99880.13;4916754;29;20052;-74
2023/09/13 09:52:04;;;;;;;4.47;1.80;;;;;;;20.88;59.48;99877.63;4916286;29;20626;-75
2023/09/13 09:54:30;;;;;;;5.95;2.13;;;;;;;20.88;59.56;99872.25;4916533;29;20135;-75
2023/09/13 09:56:57;;;;;;;4.68;2.10;;;;;;;20.88;59.35;99864.22;4916400;29;20123;-75
2023/09/13 09:59:28;;;;;;;5.35;1.88;;;;;;;20.88;59.12;99864.22;4916582;29;20095;-76
2023/09/13 10:01:58;;;;;;;4.93;1.75;;;;;;;20.90;59.52;99864.91;4916227;29;20048;-76
2023/09/13 10:04:26;;;;;;;4.82;2.10;;;;;;;20.96;59.96;99880.38;4916305;29;20055;-75
2023/09/13 10:06:59;;;;;;;4.07;2.20;;;;;;;21.01;59.13;99876.41;4916379;29;20477;-75
2023/09/13 10:09:43;;;;;;;5.75;2.10;;;;;;;21.03;59.20;99879.75;4916281;29;20087;-75
2023/09/13 10:12:10;;;;;;;6.03;2.08;;;;;;;21.12;59.16;99891.38;4916137;29;20087;-76
2023/09/13 10:14:41;;;;;;;4.63;2.03;;;;;;;21.13;59.20;99893.91;4916329;29;20120;-75
2023/09/13 10:17:09;;;;;;;3.38;1.92;;;;;;;21.19;59.78;99893.28;4916040;29;20425;-76
2023/09/13 10:19:36;;;;;;;7.95;2.38;;;;;;;21.28;59.70;99901.38;4916029;29;20497;-75
2023/09/13 10:22:04;;;;;;;6.07;2.38;;;;;;;21.40;60.11;99902.84;4915142;29;20056;-75
2023/09/13 10:24:38;;;;;;;5.32;2.13;;;;;;;21.53;59.57;99907.78;4916030;29;20567;-75
2023/09/13 10:27:09;;;;;;;5.60;1.73;;;;;;;21.71;59.14;99898.84;4916183;29;20144;-76
2023/09/13 10:29:40;;;;;;;6.72;2.33;;;;;;;21.89;58.45;99916.75;4915962;29;20058;-76
2023/09/13 10:32:10;;;;;;;4.50;2.00;;;;;;;22.04;58.72;99903.63;4915447;29;20549;-75
2023/09/13 10:34:49;;;;;;;6.30;2.33;;;;;;;22.17;57.89;99912.09;4915716;29;20051;-74
2023/09/13 10:37:28;;;;;;;6.40;2.38;;;;;;;22.26;57.84;99908.44;4915926;29;20060;-76
2023/09/13 10:40:23;;;;;;;4.63;1.73;;;;;;;22.36;57.70;99912.84;4915808;29;20111;-75
2023/09/13 10:42:51;;;;;;;6.90;2.00;;;;;;;22.50;57.19;99914.91;4915249;29;20147;-75
2023/09/13 10:45:18;;;;;;;7.53;2.13;;;;;;;22.56;57.00;99913.44;4898719;29;20517;-75
2023/09/13 10:47:49;;;;;;;6.03;1.85;;;;;;;22.60;56.38;99913.94;4915657;29;20048;-74
2023/09/13 10:50:16;;;;;;;5.18;2.30;;;;;;;22.66;56.42;99918.69;4915605;29;20055;-75
2023/09/13 10:52:44;;;;;;;4.68;2.13;;;;;;;22.72;56.25;99923.38;4915200;29;20060;-75
2023/09/13 10:55:11;;;;;;;5.22;2.20;;;;;;;22.77;55.54;99918.34;4915327;29;20146;-76
2023/09/13 10:57:40;;;;;;;5.47;2.00;;;;;;;22.77;54.87;99920.22;4915549;29;20051;-75
2023/09/13 11:00:09;;;;;;;8.35;2.03;;;;;;;22.75;54.74;99925.75;4915443;29;20052;-76
2023/09/13 11:02:41;;;;;;;6.13;2.15;;;;;;;22.71;54.41;99924.38;4914994;29;20052;-75
2023/09/13 11:05:10;;;;;;;6.72;2.22;;;;;;;22.73;55.44;99924.22;4915477;29;20052;-76
2023/09/13 11:07:43;;;;;;;5.65;1.88;;;;;;;22.75;55.00;99927.56;4915135;29;20064;-75
2023/09/13 11:10:13;;;;;;;;;;;;;;;22.84;56.49;99928.47;4915763;29;20056;-75
2023/09/13 11:12:40;;;;;;;4.68;1.92;;;;;;;23.02;56.11;99931.00;4914952;29;19923;-76
2023/09/13 11:15:23;;;;;;;5.75;2.28;;;;;;;23.10;54.96;99922.94;4915181;29;20139;-75
2023/09/13 11:17:52;;;;;;;;;;;;;;;23.18;56.02;99930.19;4915498;29;20059;-75
2023/09/13 11:20:24;;;;;;;5.65;2.00;;;;;;;23.24;53.62;99945.63;4914947;29;19978;-76
2023/09/13 11:23:08;;;;;;;5.68;1.83;;;;;;;23.15;53.67;99966.28;4914819;29;20052;-75
2023/09/13 11:26:02;;;;;;;6.85;2.50;;;;;;;23.10;53.59;99973.16;4914955;29;20508;-74
2023/09/13 11:28:38;;;;;;;4.55;2.00;;;;;;;23.03;54.64;99968.41;4915069;29;20088;-75
2023/09/13 11:31:07;;;;;;;3.78;1.98;;;;;;;23.11;55.48;99972.97;4914957;29;20056;-75
2023/09/13 11:33:39;;;;;;;5.13;2.33;;;;;;;23.28;56.45;99981.03;4913863;29;20056;-76
2023/09/13 11:36:06;;;;;;;4.37;2.00;;;;;;;23.63;57.87;99986.31;4914960;29;20056;-74
2023/09/13 11:38:35;;;;;;;4.28;1.92;;;;;;;24.08;56.71;99993.00;4914814;29;20107;-75
2023/09/13 11:41:01;;;;;;;4.97;2.03;;;;;;;24.62;56.37;100001.47;4914652;29;20056;-75
2023/09/13 11:43:29;;;;;;;4.22;2.00;;;;;;;25.06;54.21;100000.13;4914610;29;20059;-75
2023/09/13 11:46:00;;;;;;;4.47;1.80;;;;;;;25.40;53.19;100000.75;4914931;29;20052;-75
2023/09/13 11:48:39;;;;;;;6.18;2.00;;;;;;;25.61;51.58;100010.91;4914834;29;20060;-76
2023/09/13 11:51:15;;;;;;;6.50;2.55;;;;;;;25.65;49.72;100011.38;4914800;29;20659;-75
2023/09/13 11:53:50;;;;;;;4.30;2.20;;;;;;;25.61;49.76;100020.84;4914947;29;20059;-75
2023/09/13 11:56:35;;;;;;;4.85;2.20;;;;;;;25.37;49.57;100023.50;4914989;29;20059;-76
2023/09/13 11:59:05;;;;;;;4.30;2.10;;;;;;;25.22;49.36;100030.66;4914710;29;20155;-75
2023/09/13 12:01:32;;;;;;;4.57;1.85;;;;;;;24.97;49.49;100033.50;4914518;29;20107;-76
2023/09/13 12:04:03;;;;;;;3.67;2.00;;;;;;;24.70;49.63;100036.44;4914098;29;20060;-76
2023/09/13 12:06:41;;;;;;;4.18;2.00;;;;;;;24.36;49.69;100044.78;4915059;29;20099;-77
2023/09/13 12:09:15;;;;;;;3.88;1.67;;;;;;;24.11;49.61;100045.63;4914750;29;20112;-74
2023/09/13 12:11:54;;;;;;;5.03;1.70;;;;;;;23.82;50.49;100047.78;4914336;29;20051;-76
2023/09/13 12:14:25;;;;;;;2.80;1.70;;;;;;;23.65;50.68;100051.47;4914295;29;20512;-76
2023/09/13 12:17:12;;;;;;;3.90;1.80;;;;;;;23.39;51.26;100047.91;4914662;29;20071;-75
2023/09/13 12:19:39;;;;;;;5.60;1.55;;;;;;;23.22;51.21;100059.59;4914543;29;20060;-75
2023/09/13 12:22:06;;;;;;;3.83;1.58;;;;;;;23.02;51.87;100057.16;4914084;29;20405;-74
2023/09/13 12:24:33;;;;;;;7.07;2.03;;;;;;;22.87;51.92;100059.63;4914376;29;20087;-76
2023/09/13 12:26:59;;;;;;;5.00;1.75;;;;;;;22.71;52.45;100058.56;4914293;29;20059;-74
2023/09/13 12:29:27;;;;;;;5.43;1.85;;;;;;;22.60;53.11;100056.13;4914494;29;20135;-76
2023/09/13 12:31:57;;;;;;;3.80;1.60;;;;;;;22.55;54.09;100058.47;4913983;29;20404;-74
2023/09/13 12:34:24;;;;;;;3.75;1.63;;;;;;;22.64;56.23;100049.44;4914398;29;20084;-76
2023/09/13 12:36:51;;;;;;;3.92;1.90;;;;;;;22.95;57.79;100048.91;4897431;29;20092;-75
2023/09/13 12:39:19;;;;;;;4.57;2.13;;;;;;;23.50;58.69;100053.97;4914199;29;20056;-75
2023/09/13 12:41:46;;;;;;;4.03;1.70;;;;;;;24.13;57.31;100062.44;4914208;29;20056;-75
2023/09/13 12:44:14;;;;;;;4.22;1.98;;;;;;;24.78;56.18;100067.03;4914272;29;20064;-77
2023/09/13 12:46:42;;;;;;;3.30;1.80;;;;;;;25.29;53.62;100065.81;4917474;29;20481;-75
2023/09/13 12:49:11;;;;;;;3.53;1.67;;;;;;;25.60;51.14;100076.59;4917788;29;20180;-76
2023/09/13 12:51:38;;;;;;;5.20;1.70;;;;;;;25.74;49.78;100071.47;4917526;29;20560;-76
2023/09/13 12:54:05;;;;;;;4.53;1.73;;;;;;;25.70;48.81;100078.22;4917488;29;20135;-75
2023/09/13 12:56:33;;;;;;;3.30;1.63;;;;;;;25.56;48.63;100085.22;4900952;29;20164;-75
2023/09/13 12:59:00;;;;;;;4.15;1.90;;;;;;;25.33;48.21;100089.53;4917573;29;20052;-77
2023/09/13 13:01:31;;;;;;;3.35;1.70;;;;;;;25.05;48.20;100086.47;4917494;29;20092;-75
2023/09/13 13:04:01;;;;;;;3.60;1.90;;;;;;;24.80;48.56;100091.91;4900253;29;20048;-75
2023/09/13 13:06:30;;;;;;;5.20;1.77;;;;;;;24.56;49.22;100091.81;4917406;29;20056;-76
2023/09/13 13:09:12;;;;;;;2.45;1.52;;;;;;;24.28;49.91;100092.19;4917540;29;20158;-75
2023/09/13 13:11:42;;;;;;;6.35;1.90;;;;;;;24.14;50.37;100095.56;4900363;29;20058;-77
2023/09/13 13:14:23;;;;;;;3.92;1.55;;;;;;;23.93;50.68;100095.00;4917219;29;20201;-75
2023/09/13 13:16:54;;;;;;;2.65;1.80;;;;;;;23.83;50.98;100107.78;4917205;29;20052;-76
2023/09/13 13:19:33;;;;;;;5.15;1.80;;;;;;;23.76;51.26;100102.22;4917339;29;20052;-76
2023/09/13 13:22:05;;;;;;;5.60;1.95;;;;;;;23.81;51.72;100104.44;4917050;29;20058;-76
2023/09/13 13:24:38;;;;;;;5.22;2.00;;;;;;;23.82;51.71;100109.63;4917508;29;20056;-76
2023/09/13 13:27:06;;;;;;;4.63;1.90;;;;;;;23.81;51.46;100113.31;4917083;29;20541;-76
2023/09/13 13:29:35;;;;;;;3.40;1.70;;;;;;;23.76;50.67;100114.81;4916949;29;20123;-75
2023/09/13 13:32:03;;;;;;;2.78;1.35;;;;;;;23.68;50.93;100119.19;4916899;29;20059;-75
2023/09/13 13:34:29;;;;;;;10.90;2.17;;;;;;;23.57;50.45;100116.81;4917059;29;20052;-75
2023/09/13 13:36:56;;;;;;;3.05;1.65;;;;;;;23.41;50.61;100129.16;4917050;29;20060;-77
2023/09/13 13:39:23;;;;;;;5.88;1.60;;;;;;;23.22;50.50;100132.97;4916938;29;20099;-75
2023/09/13 13:41:49;;;;;;;3.30;1.48;;;;;;;23.02;51.15;100137.69;4916446;29;20051;-75
2023/09/13 13:44:17;;;;;;;3.97;2.00;;;;;;;22.80;51.69;100134.56;4916914;29;20145;-76
2023/09/13 13:46:44;;;;;;;4.22;1.60;;;;;;;22.60;52.16;100145.53;4916651;29;20434;-74
2023/09/13 13:49:16;;;;;;;5.38;1.60;;;;;;;22.46;52.87;100162.16;4916630;29;20417;-75
2023/09/13 13:51:45;;;;;;;4.82;2.00;;;;;;;22.31;52.84;100151.97;4916456;29;20070;-75
2023/09/13 13:54:11;;;;;;;3.92;1.30;;;;;;;22.17;53.01;100150.69;4916529;29;20052;-76
2023/09/13 13:56:40;;;;;;;2.85;1.50;;;;;;;22.04;53.60;100148.38;4915500;29;20056;-76
2023/09/13 13:59:09;;;;;;;3.38;1.60;;;;;;;21.95;53.90;100154.66;4916883;29;20052;-76
2023/09/13 14:01:36;;;;;;;4.00;1.30;;;;;;;21.86;54.28;100154.59;4916676;29;20058;-75
2023/09/13 14:04:10;;;;;;;4.82;1.45;;;;;;;21.81;54.62;100159.56;4900899;29;20071;-74
2023/09/13 14:06:37;;;;;;;3.22;1.52;;;;;;;21.79;54.45;100160.72;4916483;29;20052;-75
2023/09/13 14:09:04;;;;;;;3.88;1.75;;;;;;;21.78;54.69;100161.69;4916227;29;20061;-76
2023/09/13 14:11:31;;;;;;;5.18;1.70;;;;;;;21.78;54.90;100162.53;4899428;29;20055;-74
2023/09/13 14:13:57;;;;;;;5.00;1.67;;;;;;;21.82;54.95;100163.06;4916189;29;20087;-75
2023/09/13 14:16:24;;;;;;;4.65;1.88;;;;;;;21.88;55.31;100159.78;4916147;29;20056;-75
2023/09/13 14:18:50;;;;;;;4.95;1.90;;;;;;;21.96;55.60;100170.59;4916283;29;20457;-75
2023/09/13 14:21:17;;;;;;;4.82;2.13;;;;;;;22.05;55.04;100168.00;4915940;29;20131;-75
2023/09/13 14:23:43;;;;;;;5.80;2.03;;;;;;;22.14;54.82;100177.81;4916009;29;20515;-75
2023/09/13 14:26:10;;;;;;;3.25;2.22;;;;;;;22.21;54.78;100178.84;4899350;29;20067;-75
2023/09/13 14:28:37;;;;;;;6.45;2.28;;;;;;;22.25;54.69;100177.56;4915735;29;20056;-75
2023/09/13 14:31:06;;;;;;;2.28;1.63;;;;;;;22.29;54.85;100182.63;4915672;29;20056;-75
2023/09/13 14:33:37;;;;;;;3.55;1.63;;;;;;;22.31;54.78;100180.63;4914452;29;20091;-74
2023/09/13 14:36:04;;;;;;;5.18;2.03;;;;;;;22.32;54.65;100191.19;4914831;29;20056;-76
2023/09/13 14:38:30;;;;;;;3.85;1.60;;;;;;;22.33;54.74;100187.53;4914584;29;20052;-75
2023/09/13 14:40:57;;;;;;;5.00;2.10;;;;;;;22.33;54.63;100192.03;4914660;29;20094;-74
2023/09/13 14:43:24;;;;;;;4.05;2.20;;;;;;;22.33;55.16;100176.81;4913758;29;20056;-76
2023/09/13 14:45:50;;;;;;;3.17;1.88;;;;;;;22.36;55.56;100176.47;4913460;29;20070;-75
2023/09/13 14:48:17;;;;;;;3.33;1.50;;;;;;;22.41;55.23;100173.34;4914984;29;20048;-74
2023/09/13 14:50:44;;;;;;;3.35;1.60;;;;;;;22.47;54.73;100175.38;4915439;29;20054;-74
2023/09/13 14:53:11;;;;;;;2.83;1.60;;;;;;;22.51;54.59;100182.13;4915413;29;20052;-76
2023/09/13 14:55:38;;;;;;;3.60;1.48;;;;;;;22.55;54.45;100173.81;4915543;29;20077;-76
2023/09/13 14:58:04;;;;;;;3.33;1.70;;;;;;;22.57;54.38;100178.03;4915525;29;20056;-75
2023/09/13 15:00:31;;;;;;;2.55;1.52;;;;;;;22.56;54.41;100176.34;4915444;29;20067;-77
2023/09/13 15:03:00;;;;;;;4.88;2.05;;;;;;;22.60;54.59;100179.53;4914927;29;20135;-75
2023/09/13 15:05:27;;;;;;;4.10;2.28;;;;;;;22.64;54.57;100181.78;4915105;29;20433;-76
2023/09/13 15:07:53;;;;;;;7.80;2.50;;;;;;;22.72;54.14;100175.63;4914978;29;20596;-74
2023/09/13 15:10:21;;;;;;;5.15;2.03;;;;;;;22.81;53.91;100173.84;4915024;29;20683;-75
2023/09/13 15:12:48;;;;;;;4.25;1.85;;;;;;;22.84;53.57;100173.50;4914643;29;20536;-75
2023/09/13 15:15:14;;;;;;;4.30;1.83;;;;;;;22.84;52.81;100178.06;4915016;29;20048;-75
2023/09/13 15:17:41;;;;;;;5.07;2.10;;;;;;;22.83;53.04;100171.00;4914915;29;20205;-74
2023/09/13 15:20:08;;;;;;;3.63;2.10;;;;;;;22.80;52.98;100176.69;4915080;29;20056;-76
2023/09/13 15:22:34;;;;;;;4.07;1.80;;;;;;;22.78;52.93;100176.84;4914719;29;20048;-76
2023/09/13 15:25:01;;;;;;;5.25;2.03;;;;;;;22.79;52.81;100178.50;4914689;29;20052;-75
2023/09/13 15:27:27;;;;;;;5.20;2.08;;;;;;;22.80;52.87;100187.41;4914805;29;20091;-75
2023/09/13 15:29:54;;;;;;;5.38;1.70;;;;;;;22.82;53.00;100185.41;4897926;29;20497;-74
2023/09/13 15:32:20;;;;;;;4.68;1.90;;;;;;;22.82;52.98;100183.56;4914265;29;20048;-75
2023/09/13 15:34:47;;;;;;;4.88;1.77;;;;;;;22.86;53.41;100181.41;4914846;29;20485;-76
2023/09/13 15:37:13;;;;;;;4.30;1.75;;;;;;;22.90;53.25;100185.47;4914793;29;20087;-75
2023/09/13 15:39:40;;;;;;;5.38;1.60;;;;;;;22.91;52.99;100189.81;4914654;29;20107;-74
2023/09/13 15:42:07;;;;;;;4.05;1.40;;;;;;;22.93;52.48;100195.88;4914383;29;20062;-75
2023/09/13 15:44:34;;;;;;;3.28;1.65;;;;;;;22.92;52.43;100194.22;4914463;29;20060;-77
2023/09/13 15:47:00;;;;;;;3.58;1.48;;;;;;;22.91;52.44;100195.19;4914431;29;20138;-75
2023/09/13 15:49:27;;;;;;;8.45;2.00;;;;;;;22.89;52.17;100199.88;4914778;29;20100;-75
2023/09/13 15:51:53;;;;;;;4.60;1.70;;;;;;;22.84;52.59;100200.34;4897403;29;20084;-74
2023/09/13 15:54:20;;;;;;;5.78;2.10;;;;;;;22.82;52.63;100198.81;4914667;29;20048;-76
2023/09/13 15:56:47;;;;;;;6.35;2.08;;;;;;;22.79;52.28;100199.97;4914639;29;20048;-74
2023/09/13 15:59:14;;;;;;;4.50;1.92;;;;;;;22.76;52.29;100203.81;4914613;29;20052;-75
2023/09/13 16:01:40;;;;;;;3.92;1.90;;;;;;;22.74;52.53;100200.47;4897299;29;20116;-75
2023/09/13 16:04:07;;;;;;;4.80;1.55;;;;;;;22.70;52.38;100201.78;4914557;29;20059;-74
2023/09/13 16:06:36;;;;;;;3.20;1.80;;;;;;;22.67;52.25;100210.13;4914771;29;20505;-74
2023/09/13 16:09:03;;;;;;;4.93;1.92;;;;;;;22.62;52.06;100215.13;4914397;29;20489;-75
2023/09/13 16:11:31;;;;;;;2.80;1.70;;;;;;;22.58;51.79;100208.38;4914433;29;20071;-76
2023/09/13 16:13:58;;;;;;;4.25;1.75;;;;;;;22.53;52.68;100222.22;4914228;29;20075;-75
2023/09/13 16:16:27;;;;;;;4.57;1.83;;;;;;;22.48;52.45;100225.38;4914723;29;20169;-75
2023/09/13 16:18:54;;;;;;;4.53;1.80;;;;;;;22.42;52.51;100222.47;4914589;29;20074;-75
2023/09/13 16:21:21;;;;;;;6.50;2.35;;;;;;;22.35;52.55;100228.44;4917327;29;20505;-75
2023/09/13 16:23:47;;;;;;;4.38;2.25;;;;;;;22.29;52.52;100217.47;4917925;29;20090;-75
2023/09/13 16:26:14;;;;;;;7.00;2.00;;;;;;;22.22;52.71;100211.88;4918051;29;20052;-76
2023/09/13 16:28:41;;;;;;;6.28;1.98;;;;;;;22.17;52.81;100216.88;4917971;29;20083;-77
2023/09/13 16:31:08;;;;;;;5.60;2.08;;;;;;;22.09;52.76;100218.47;4918208;29;20060;-74
2023/09/13 16:33:35;;;;;;;5.15;1.90;;;;;;;22.03;52.80;100204.81;4917701;29;20067;-75
2023/09/13 16:36:02;;;;;;;6.13;2.08;;;;;;;21.97;53.00;100211.63;4917886;29;20424;-75
2023/09/13 16:38:28;;;;;;;6.72;2.20;;;;;;;21.88;52.93;100221.44;4917885;29;20056;-74